createdAt,value
2022-10-06T00:01:28.146Z,4.57
2022-10-06T00:05:30.170Z,4.07
2022-10-06T00:09:31.626Z,8.20
2022-10-06T00:13:33.823Z,4.82
2022-10-06T00:17:35.335Z,4.55
2022-10-06T00:21:36.904Z,5.63
2022-10-06T00:25:39.035Z,5.97
2022-10-06T00:29:42.350Z,4.22
2022-10-06T00:33:43.887Z,3.92
2022-10-06T00:37:45.832Z,6.55
2022-10-06T00:41:47.235Z,3.53
2022-10-06T00:45:49.168Z,3.50
2022-10-06T00:49:51.145Z,3.30
2022-10-06T00:53:53.101Z,5.43
2022-10-06T00:57:54.958Z,5.50
2022-10-06T01:02:11.365Z,7.00
2022-10-06T01:06:13.282Z,4.38
2022-10-06T01:10:14.713Z,5.25
2022-10-06T01:14:17.391Z,4.50
2022-10-06T01:18:22.243Z,4.93
2022-10-06T01:22:28.994Z,4.00
2022-10-06T01:26:33.035Z,3.15
2022-10-06T01:30:50.941Z,5.35
2022-10-06T01:34:52.449Z,7.07
2022-10-06T01:38:53.818Z,5.70
2022-10-06T01:42:56.146Z,3.45
2022-10-06T01:46:57.548Z,8.82
2022-10-06T01:50:58.929Z,5.50
2022-10-06T01:55:00.327Z,4.13
2022-10-06T01:59:01.766Z,4.30
2022-10-06T02:03:03.267Z,5.43
2022-10-06T02:07:05.061Z,7.10
2022-10-06T02:11:10.782Z,4.15
2022-10-06T02:15:12.193Z,4.60
2022-10-06T02:19:13.591Z,4.30
2022-10-06T02:23:14.954Z,4.85
2022-10-06T02:27:16.381Z,5.55
2022-10-06T02:31:17.850Z,7.32
2022-10-06T02:35:19.304Z,4.00
2022-10-06T02:39:20.660Z,4.53
2022-10-06T02:43:22.129Z,5.78
2022-10-06T02:47:23.587Z,4.85
2022-10-06T02:51:25.296Z,6.18
2022-10-06T02:55:26.947Z,9.88
2022-10-06T02:59:28.348Z,4.80
2022-10-06T03:03:30.934Z,4.13
2022-10-06T03:07:32.399Z,6.40
2022-10-06T03:11:36.645Z,4.57
2022-10-06T03:15:38.026Z,5.05
2022-10-06T03:19:40.040Z,5.07
2022-10-06T03:23:44.002Z,7.25
2022-10-06T03:27:45.501Z,3.95
2022-10-06T03:31:46.944Z,2.95
2022-10-06T03:35:57.608Z,3.97
2022-10-06T03:39:59.062Z,5.93
2022-10-06T03:44:00.956Z,3.78
2022-10-06T03:48:02.378Z,3.45
2022-10-06T03:52:03.791Z,6.75
2022-10-06T03:56:11.669Z,2.72
2022-10-06T04:00:13.780Z,2.08
2022-10-06T04:04:15.371Z,3.30
2022-10-06T04:08:16.853Z,3.38
2022-10-06T04:12:18.241Z,2.17
2022-10-06T04:16:25.237Z,3.63
2022-10-06T04:20:26.730Z,3.15
2022-10-06T04:24:28.175Z,2.72
2022-10-06T04:28:30.264Z,2.35
2022-10-06T04:32:32.310Z,1.45
2022-10-06T04:36:40.054Z,2.58
2022-10-06T04:40:41.438Z,2.30
2022-10-06T04:44:42.854Z,1.40
2022-10-06T04:48:44.549Z,1.70
2022-10-06T04:52:45.994Z,1.95
2022-10-06T04:56:47.381Z,0.88
2022-10-06T05:00:49.149Z,3.78
2022-10-06T05:04:50.579Z,1.50
2022-10-06T05:08:54.324Z,1.10
2022-10-06T05:12:57.010Z,0.77
2022-10-06T05:16:58.416Z,3.90
2022-10-06T05:21:06.664Z,0.85
2022-10-06T05:25:08.743Z,1.77
2022-10-06T05:29:10.205Z,1.63
2022-10-06T05:33:12.186Z,2.85
2022-10-06T05:37:13.571Z,2.15
2022-10-06T05:41:18.715Z,2.08
2022-10-06T05:45:20.132Z,0.95
2022-10-06T05:49:21.549Z,0.85
2022-10-06T05:53:23.006Z,0.57
2022-10-06T05:57:24.389Z,0.80
2022-10-06T06:01:33.153Z,2.13
2022-10-06T06:05:34.653Z,0.82
2022-10-06T06:09:36.071Z,0.57
2022-10-06T06:13:37.534Z,1.10
2022-10-06T06:17:38.938Z,2.65
2022-10-06T06:21:40.452Z,1.73
2022-10-06T06:25:42.626Z,2.33
2022-10-06T06:29:44.030Z,0.40
2022-10-06T06:33:45.490Z,7.03
2022-10-06T06:37:46.868Z,2.20
2022-10-06T06:41:48.902Z,1.05
2022-10-06T06:45:50.354Z,2.38
2022-10-06T06:49:51.827Z,2.60
2022-10-06T06:53:53.790Z,1.35
2022-10-06T06:57:55.429Z,0.73
2022-10-06T07:01:57.633Z,1.85
2022-10-06T07:06:09.414Z,3.55
2022-10-06T07:10:11.571Z,1.13
2022-10-06T07:14:12.995Z,3.80
2022-10-06T07:18:33.093Z,1.23
2022-10-06T07:22:52.875Z,4.05
2022-10-06T07:26:56.375Z,1.55
2022-10-06T07:31:00.700Z,0.60
2022-10-06T07:35:04.253Z,3.83
2022-10-06T07:39:05.750Z,4.68
2022-10-06T07:43:07.122Z,5.00
2022-10-06T07:47:09.124Z,3.13
2022-10-06T07:51:16.040Z,7.07
2022-10-06T07:55:18.210Z,3.88
2022-10-06T07:59:20.383Z,2.22
2022-10-06T08:03:22.216Z,3.97
2022-10-06T08:07:23.661Z,3.75
2022-10-06T08:11:25.102Z,3.25
2022-10-06T08:15:26.614Z,2.60
2022-10-06T08:19:27.974Z,4.95
2022-10-06T08:23:29.322Z,2.80
2022-10-06T08:27:30.921Z,5.13
2022-10-06T08:31:32.565Z,2.80
2022-10-06T08:35:36.046Z,2.47
2022-10-06T08:39:37.440Z,5.20
2022-10-06T08:43:39.212Z,6.72
2022-10-06T08:47:47.224Z,3.45
2022-10-06T08:52:00.533Z,4.68
2022-10-06T08:56:18.118Z,4.00
2022-10-06T09:00:21.432Z,8.70
2022-10-06T09:04:30.426Z,4.78
2022-10-06T09:08:47.430Z,1.08
2022-10-06T09:13:00.649Z,4.05
2022-10-06T09:17:10.622Z,1.23
2022-10-06T09:21:16.708Z,1.67
2022-10-06T09:25:21.782Z,7.25
2022-10-06T09:29:23.504Z,6.97
2022-10-06T09:33:26.140Z,0.47
2022-10-06T09:37:28.193Z,5.35
2022-10-06T09:41:42.889Z,5.35
2022-10-06T09:45:44.373Z,0.95
2022-10-06T09:50:11.973Z,4.25
2022-10-06T09:54:14.958Z,4.15
2022-10-06T09:58:21.386Z,3.78
2022-10-06T10:02:36.761Z,3.25
2022-10-06T10:06:38.956Z,4.43
2022-10-06T10:10:41.194Z,5.38
2022-10-06T10:14:42.630Z,7.30
2022-10-06T10:18:50.918Z,2.15
2022-10-06T10:22:53.880Z,5.47
2022-10-06T10:27:05.040Z,9.38
2022-10-06T10:31:26.146Z,7.22
2022-10-06T10:35:32.126Z,1.95
2022-10-06T10:39:47.065Z,2.35
2022-10-06T10:43:48.678Z,3.92
2022-10-06T10:47:50.293Z,3.42
2022-10-06T10:52:13.947Z,4.18
2022-10-06T10:56:17.667Z,3.15
2022-10-06T11:00:22.806Z,2.55
2022-10-06T11:04:24.786Z,5.75
2022-10-06T11:08:50.561Z,5.68
2022-10-06T11:13:16.127Z,3.13
2022-10-06T11:17:45.280Z,7.55
2022-10-06T11:22:11.288Z,3.78
2022-10-06T11:26:39.700Z,6.05
2022-10-06T11:30:58.442Z,2.83
2022-10-06T11:34:59.975Z,4.33
2022-10-06T11:39:37.315Z,1.60
2022-10-06T11:43:52.038Z,3.75
2022-10-06T11:47:56.448Z,5.55
2022-10-06T11:52:18.463Z,3.75
2022-10-06T11:56:19.801Z,3.13
2022-10-06T12:00:21.222Z,3.65
2022-10-06T12:04:24.642Z,2.45
2022-10-06T12:08:37.396Z,3.45
2022-10-06T12:12:42.034Z,2.63
2022-10-06T12:21:25.185Z,2.83
2022-10-06T12:25:38.054Z,2.63
2022-10-06T12:29:50.171Z,7.30
2022-10-06T12:33:51.647Z,3.72
2022-10-06T12:37:55.307Z,6.60
2022-10-06T12:42:20.270Z,3.60
2022-10-06T12:46:37.519Z,4.80
2022-10-06T12:50:42.759Z,4.88
2022-10-06T12:55:00.413Z,3.78
2022-10-06T12:59:28.488Z,4.03
2022-10-06T13:03:30.579Z,2.72
2022-10-06T13:07:34.081Z,2.40
2022-10-06T13:11:35.514Z,1.75
2022-10-06T13:15:41.423Z,5.43
2022-10-06T13:19:46.741Z,4.40
2022-10-06T13:23:49.175Z,5.75
2022-10-06T13:27:53.753Z,3.88
2022-10-06T13:31:55.957Z,3.20
2022-10-06T13:35:58.290Z,9.75
2022-10-06T13:40:00.729Z,4.65
2022-10-06T13:44:20.803Z,0.68
2022-10-06T13:52:50.515Z,5.68
2022-10-06T13:56:53.163Z,2.58
2022-10-06T14:01:00.651Z,5.25
2022-10-06T14:05:34.121Z,3.65
2022-10-06T14:09:35.512Z,2.70
2022-10-06T14:13:52.148Z,4.10
2022-10-06T14:18:00.155Z,3.38
2022-10-06T14:22:03.576Z,3.15
2022-10-06T14:26:05.644Z,2.80
2022-10-06T14:30:07.884Z,3.67
2022-10-06T14:34:14.365Z,3.67
2022-10-06T14:38:16.032Z,3.33
2022-10-06T14:42:18.180Z,5.43
2022-10-06T14:46:19.817Z,4.13
2022-10-06T14:50:21.338Z,3.10
2022-10-06T14:54:22.967Z,3.55
2022-10-06T14:58:24.346Z,4.00
2022-10-06T15:02:25.857Z,5.00
2022-10-06T15:06:46.519Z,2.53
2022-10-06T15:10:51.842Z,3.78
2022-10-06T15:14:53.234Z,4.05
2022-10-06T15:18:54.718Z,2.75
2022-10-06T15:22:56.422Z,7.07
2022-10-06T15:27:17.662Z,8.23
2022-10-06T15:31:25.035Z,4.15
2022-10-06T15:35:26.472Z,2.53
2022-10-06T15:39:30.016Z,4.40
2022-10-06T15:43:52.022Z,4.13
2022-10-06T15:47:53.391Z,4.78
2022-10-06T15:52:02.556Z,2.58
2022-10-06T15:56:04.837Z,3.00
2022-10-06T16:00:06.869Z,7.90
2022-10-06T16:04:47.185Z,5.80
2022-10-06T16:08:48.600Z,5.57
2022-10-06T16:12:49.984Z,6.20
2022-10-06T16:16:52.435Z,7.57
2022-10-06T16:20:54.668Z,4.20
2022-10-06T16:24:56.038Z,2.45
2022-10-06T16:28:57.681Z,5.88
2022-10-06T16:32:59.056Z,3.60
2022-10-06T16:37:00.458Z,3.53
2022-10-06T16:41:02.581Z,4.97
2022-10-06T16:45:04.226Z,4.55
2022-10-06T16:49:08.377Z,4.25
2022-10-06T16:53:12.437Z,3.90
2022-10-06T16:57:18.173Z,5.78
2022-10-06T17:01:21.833Z,3.47
2022-10-06T17:05:23.306Z,8.55
2022-10-06T17:09:27.385Z,6.50
2022-10-06T17:13:29.172Z,7.38
2022-10-06T17:17:30.585Z,9.05
2022-10-06T17:21:45.704Z,6.78
2022-10-06T17:25:59.490Z,5.50
2022-10-06T17:30:00.930Z,9.15
2022-10-06T17:34:11.213Z,10.02
2022-10-06T17:38:12.666Z,9.25
2022-10-06T17:42:15.133Z,10.45
2022-10-06T17:46:20.175Z,8.40
2022-10-06T17:50:21.594Z,8.43
2022-10-06T17:54:26.696Z,6.60
2022-10-06T17:58:30.122Z,8.88
2022-10-06T18:02:31.658Z,7.15
2022-10-06T18:06:35.453Z,11.55
2022-10-06T18:10:59.117Z,7.78
2022-10-06T18:15:01.485Z,7.45
2022-10-06T18:19:11.512Z,10.02
2022-10-06T18:23:14.174Z,14.23
2022-10-06T18:27:15.568Z,9.25
2022-10-06T18:31:18.849Z,9.20
2022-10-06T18:39:42.029Z,8.32
2022-10-06T18:43:44.256Z,11.10
2022-10-06T18:48:04.177Z,10.48
2022-10-06T18:52:06.975Z,10.70
2022-10-06T18:56:08.525Z,10.98
2022-10-06T19:00:10.786Z,9.68
2022-10-06T19:04:14.827Z,9.63
2022-10-06T19:08:16.184Z,12.15
2022-10-06T19:12:17.547Z,9.52
2022-10-06T19:16:22.241Z,13.23
2022-10-06T19:20:23.687Z,11.52
2022-10-06T19:24:27.462Z,10.35
2022-10-06T19:28:31.423Z,12.13
2022-10-06T19:32:33.024Z,14.75
2022-10-06T19:36:35.305Z,8.23
2022-10-06T19:40:36.851Z,9.75
2022-10-06T19:44:43.141Z,10.95
2022-10-06T19:48:44.771Z,12.02
2022-10-06T19:52:46.287Z,7.40
2022-10-06T19:56:48.321Z,7.30
2022-10-06T20:00:49.696Z,9.88
2022-10-06T20:04:51.085Z,6.40
2022-10-06T20:08:52.860Z,8.35
2022-10-06T20:12:54.340Z,10.70
2022-10-06T20:16:56.792Z,7.38
2022-10-06T20:20:58.906Z,16.77
2022-10-06T20:25:01.840Z,12.25
2022-10-06T20:29:07.685Z,11.65
2022-10-06T20:33:11.267Z,10.48
2022-10-06T20:37:12.628Z,6.50
2022-10-06T20:41:17.797Z,6.20
2022-10-06T20:45:19.166Z,6.80
2022-10-06T20:49:21.220Z,6.72
2022-10-06T20:53:29.579Z,10.80
2022-10-06T20:57:33.845Z,14.63
2022-10-06T21:01:37.180Z,7.70
2022-10-06T21:05:38.689Z,8.02
2022-10-06T21:09:40.353Z,13.07
2022-10-06T21:13:48.503Z,9.15
2022-10-06T21:17:49.923Z,9.02
2022-10-06T21:21:53.719Z,16.63
2022-10-06T21:25:56.306Z,9.18
2022-10-06T21:29:57.789Z,11.95
2022-10-06T21:34:00.455Z,12.02
2022-10-06T21:38:01.878Z,9.43
2022-10-06T21:42:03.669Z,6.53
2022-10-06T21:46:27.026Z,12.25
2022-10-06T21:50:26.575Z,6.38
2022-10-06T21:54:27.997Z,7.85
2022-10-06T21:58:29.413Z,5.25
2022-10-06T22:02:30.889Z,12.52
2022-10-06T22:06:34.883Z,6.30
2022-10-06T22:10:36.333Z,12.95
2022-10-06T22:14:37.742Z,7.05
2022-10-06T22:18:40.538Z,10.02
2022-10-06T22:22:41.948Z,8.52
2022-10-06T22:26:44.452Z,7.50
2022-10-06T22:30:45.845Z,8.23
2022-10-06T22:34:47.264Z,10.30
2022-10-06T22:38:48.710Z,4.82
2022-10-06T22:42:50.126Z,9.55
2022-10-06T22:46:51.637Z,9.25
2022-10-06T22:50:53.294Z,11.18
2022-10-06T22:54:54.751Z,7.43
2022-10-06T22:58:59.418Z,7.13
2022-10-06T23:03:01.089Z,9.13
2022-10-06T23:07:02.535Z,10.40
2022-10-06T23:11:06.607Z,10.25
2022-10-06T23:15:11.358Z,7.03
2022-10-06T23:19:12.879Z,6.68
2022-10-06T23:23:14.538Z,11.32
2022-10-06T23:27:15.959Z,11.18
2022-10-06T23:31:17.424Z,7.63
2022-10-06T23:35:18.919Z,8.55
2022-10-06T23:39:20.317Z,4.93
2022-10-06T23:43:23.053Z,12.52
2022-10-06T23:47:24.534Z,8.95
2022-10-06T23:51:26.038Z,11.52
2022-10-06T23:55:27.437Z,12.75
2022-10-06T23:59:29.531Z,13.95
